Aviation Digital Data Service (ADDS)

Output produced by METARs form (1740 UTC 24 June 2019)
found at http://www.aviationweather.gov/metar/data/
 
Forecast for: EYVI (VILNIUS INTL , LT)
Text: TAF EYVI 241700Z 2418/2518 35008KT CAVOK
Forecast period: 1800 UTC 24 June 2019 to 1800 UTC 25 June 2019
Forecast type: FROM: standard forecast or significant change
Winds: from the N (350 degrees) at 9 MPH (8 knots; 4.1 m/s)
Visibility: 6 or more miles 10+ km)
Ceiling: unknown
Clouds: missing
Weather: NSW  (no significant weather)